This is the latest recevied weather packets stored in our database for station/object N6SPP. If no packets are shown the sender has not sent any weather packets the latest 10 day(s).
| Time | Temp. | Humidity | Pressure | Rain* | Wind** | Luminosity | Snow |
|---|---|---|---|---|---|---|---|
| 1778098252 | 23.33° C | 49% | 1021.7 hPa | 0 mm | - | 791 W/m² | - |
| 1778097948 | 22.78° C | 50% | 1021.7 hPa | 0 mm | - | 790 W/m² | - |
| 1778097645 | 22.78° C | 50% | 1022 hPa | 0 mm | - | 790 W/m² | - |
| 1778097342 | 23.33° C | 51% | 1021.9 hPa | 0 mm | - | 792 W/m² | - |
| 1778097039 | 23.33° C | 54% | 1021.8 hPa | 0 mm | - | 797 W/m² | - |
| 1778096737 | 23.89° C | 52% | 1022.2 hPa | 0 mm | - | 803 W/m² | - |
| 1778096432 | 22.78° C | 54% | 1022.1 hPa | 0 mm | - | 801 W/m² | - |
| 1778096130 | 22.22° C | 55% | 1022.2 hPa | 0 mm | - | 804 W/m² | - |
| 1778095827 | 21.67° C | 57% | 1022.3 hPa | 0 mm | - | 802 W/m² | - |
| 1778095524 | 22.22° C | 58% | 1022.3 hPa | 0 mm | - | 796 W/m² | - |
| 1778095220 | 22.22° C | 60% | 1022.3 hPa | 0 mm | - | 792 W/m² | - |
| 1778094917 | 22.22° C | 59% | 1022.6 hPa | 0 mm | - | 787 W/m² | - |
| 1778094613 | 22.22° C | 61% | 1022.6 hPa | 0 mm | - | 781 W/m² | - |
| 1778094310 | 21.67° C | 62% | 1022.6 hPa | 0 mm | - | 775 W/m² | - |
| 1778094007 | 21.67° C | 62% | 1022.5 hPa | 0 mm | - | 771 W/m² | - |
| 1778093704 | 21.67° C | 63% | 1022.4 hPa | 0 mm | - | 763 W/m² | - |
| 1778093400 | 21.67° C | 62% | 1022.3 hPa | 0 mm | - | 555 W/m² | - |
| 1778093098 | 21.67° C | 61% | 1022.6 hPa | 0 mm | - | 752 W/m² | - |
| 1778092795 | 21.67° C | 62% | 1022.6 hPa | 0 mm | - | 745 W/m² | - |
| 1778092490 | 21.67° C | 62% | 1022.6 hPa | 0 mm | - | 741 W/m² | - |
| 1778092187 | 21.11° C | 62% | 1022.4 hPa | 0 mm | - | 732 W/m² | - |
| 1778091885 | 22.22° C | 58% | 1022.5 hPa | 0 mm | - | 727 W/m² | - |
| 1778091582 | 21.11° C | 60% | 1022.6 hPa | 0 mm | - | 715 W/m² | - |
| 1778091280 | 22.22° C | 57% | 1022.6 hPa | 0 mm | - | 706 W/m² | - |
| 1778090976 | 22.22° C | 57% | 1022.5 hPa | 0 mm | - | 698 W/m² | - |
* Rain latest hour (hover to see other rain measurements)
** Current wind speed in m/s (hover to see current wind gust speed)